Terminal Aerodrome Forecast
Issued by NWS Wilmington, OH

Current Version | Previous Version | Graphics & Text | Print | Product List | Glossary On
Versions: 1 2 3 4 5 6 7 8 9 10 11 12 13 14 15 16 17 18 19 20 21
000
FTUS41 KILN 071100
TAFILN
TAF
KILN 071120Z 0712/0812 22010KT P6SM FEW040 BKN150
     FM071700 22015G24KT P6SM VCSH BKN035
      TEMPO 0718/0722 5SM -TSRA BKN030CB
     FM080000 22013KT P6SM VCSH BKN040
      TEMPO 0810/0812 5SM -TSRA BR BKN030CB=

USA.gov is the U.S. government's official web portal to all federal, state and local government web resources and services.